Time;durP1;ratioP1;P1;durP2;ratioP2;P2;SDS_P1;SDS_P2;PMS_P1;PMS_P2;Temp;Humidity;BMP_temperature;BMP_pressure;BME280_temperature;BME280_humidity;BME280_pressure;Samples;Min_cycle;Max_cycle;Signal;HPM_P1;HPM_P2
2021/10/16 00:01:15;;;;;;;;;;;;;;;5.76;94.26;102175.78;5073109;28;19954;-46
2021/10/16 00:03:42;;;;;;;;;;;;;;;5.71;94.74;102178.50;5073176;28;20343;-57
2021/10/16 00:06:08;;;;;;;;;;;;;;;5.65;95.07;102177.78;5071093;28;19928;-57
2021/10/16 00:08:35;;;;;;;;;;;;;;;5.67;94.14;102176.00;5070230;28;19925;-57
2021/10/16 00:11:01;;;;;;;;;;;;;;;5.68;94.46;102186.38;5071181;28;19932;-57
2021/10/16 00:13:28;;;;;;;;;;;;;;;5.69;94.00;102180.28;5071891;28;19995;-57
2021/10/16 00:15:55;;;;;;;;;;;;;;;5.59;93.83;102184.03;5072260;28;20395;-57
2021/10/16 00:18:21;;;;;;;;;;;;;;;5.63;93.86;102182.19;5069783;28;19928;-58
2021/10/16 00:20:48;;;;;;;;;;;;;;;5.50;94.22;102181.59;5072028;28;20039;-57
2021/10/16 00:23:15;;;;;;;;;;;;;;;5.53;93.89;102187.59;5072844;28;19925;-57
2021/10/16 00:25:42;;;;;;;;;;;;;;;5.64;93.62;102192.56;5105279;28;20047;-56
2021/10/16 00:28:08;;;;;;;;;;;;;;;5.48;94.11;102183.38;5073032;28;19929;-57
2021/10/16 00:30:35;;;;;;;;;;;;;;;5.51;94.17;102184.19;5071560;28;19978;-57
2021/10/16 00:33:02;;;;;;;;;;;;;;;5.40;94.76;102180.97;5072753;28;19935;-57
2021/10/16 00:35:28;;;;;;;;;;;;;;;5.41;94.42;102175.72;5070834;28;19925;-58
2021/10/16 00:37:55;;;;;;;;;;;;;;;5.39;94.67;102181.84;5069711;28;19924;-58
2021/10/16 00:40:24;;;;;;;;;;;;;;;5.42;94.37;102177.41;5071310;28;19924;-57
2021/10/16 00:42:52;;;;;;;;;;;;;;;5.44;94.51;102174.78;5068703;28;19928;-56
2021/10/16 00:45:19;;;;;;;;;;;;;;;5.37;93.87;102179.28;5070125;28;20019;-54
2021/10/16 00:47:46;;;;;;;;;;;;;;;5.34;94.05;102178.47;5086620;28;19931;-56
2021/10/16 00:50:14;;;;;;;;;;;;;;;5.36;94.22;102179.31;5069635;28;19925;-56
2021/10/16 00:52:41;;;;;;;;;;;;;;;5.31;94.75;102173.34;5070839;28;20778;-57
2021/10/16 00:55:08;;;;;;;;;;;;;;;5.31;94.50;102183.75;5104706;28;19925;-47
2021/10/16 00:57:34;;;;;;;;;;;;;;;5.38;93.98;102174.91;5103341;28;19925;-47
2021/10/16 01:00:02;;;;;;;;;;;;;;;5.25;94.14;102179.53;5068166;28;20291;-48
2021/10/16 01:02:28;;;;;;;;;;;;;;;5.25;93.61;102175.16;5071130;28;19924;-46
2021/10/16 01:04:56;;;;;;;;;;;;;;;5.18;93.70;102181.41;5072213;28;19971;-47
2021/10/16 01:07:23;;;;;;;;;;;;;;;5.27;93.59;102187.34;5072237;28;19926;-49
2021/10/16 01:09:50;;;;;;;;;;;;;;;5.26;93.66;102183.84;5071316;28;19925;-48
2021/10/16 01:12:17;;;;;;;;;;;;;;;5.18;93.66;102175.31;5067840;28;19928;-46
2021/10/16 01:14:45;;;;;;;;;;;;;;;5.10;93.92;102174.63;5070685;28;19925;-49
2021/10/16 01:17:12;;;;;;;;;;;;;;;5.18;93.47;102177.94;5104671;28;19928;-57
2021/10/16 01:19:41;;;;;;;;;;;;;;;5.16;95.02;102177.97;5074730;28;19946;-57
2021/10/16 01:22:07;;;;;;;;;;;;;;;5.19;94.99;102179.66;5076237;28;20350;-57
2021/10/16 01:24:34;;;;;;;;;;;;;;;5.11;95.23;102166.78;5076159;28;19924;-57
2021/10/16 01:27:01;;;;;;;;;;;;;;;4.98;96.81;102170.56;5108528;28;19956;-56
2021/10/16 01:29:28;;;;;;;;;;;;;;;4.97;96.22;102171.44;5074958;28;19928;-58
2021/10/16 01:31:58;;;;;;;;;;;;;;;4.92;95.26;102171.50;5076008;28;19932;-57
2021/10/16 01:34:25;;;;;;;;;;;;;;;4.96;94.75;102169.72;5075893;28;19925;-56
2021/10/16 01:36:52;;;;;;;;;;;;;;;4.95;94.96;102174.06;5108510;28;20386;-56
2021/10/16 01:39:20;;;;;;;;;;;;;;;4.82;96.88;102180.41;5074504;28;19930;-56
2021/10/16 01:41:46;;;;;;;;;;;;;;;4.75;97.83;102174.47;5074272;28;19925;-55
2021/10/16 01:44:13;;;;;;;;;;;;;;;4.74;98.55;102181.44;5071799;28;19936;-47
2021/10/16 01:46:40;;;;;;;;;;;;;;;4.74;98.45;102172.75;5105252;28;20452;-46
2021/10/16 01:49:10;;;;;;;;;;;;;;;4.87;97.75;102169.00;5075656;28;19928;-47
2021/10/16 01:51:36;;;;;;;;;;;;;;;4.70;97.95;102165.88;5108086;28;19925;-47
2021/10/16 01:54:03;;;;;;;;;;;;;;;4.88;98.12;102175.94;5091079;28;19924;-51
2021/10/16 01:56:30;;;;;;;;;;;;;;;4.88;98.80;102170.72;5074246;28;19970;-46
2021/10/16 01:58:57;;;;;;;;;;;;;;;4.90;98.50;102166.31;5074614;28;20295;-47
2021/10/16 02:01:23;;;;;;;;;;;;;;;4.90;97.74;102163.72;5075550;28;19928;-46
2021/10/16 02:03:50;;;;;;;;;;;;;;;4.95;96.76;102163.66;5075630;28;20354;-50
2021/10/16 02:06:17;;;;;;;;;;;;;;;4.89;96.65;102159.41;5075453;28;19970;-57
2021/10/16 02:08:43;;;;;;;;;;;;;;;4.94;96.38;102161.06;5074190;28;19935;-57
2021/10/16 02:11:10;;;;;;;;;;;;;;;4.85;96.53;102156.88;5105279;28;19935;-48
2021/10/16 02:13:37;;;;;;;;;;;;;;;4.81;96.09;102161.28;5074814;28;19928;-56
2021/10/16 02:16:03;;;;;;;;;;;;;;;4.81;95.98;102158.69;5075061;28;19924;-57
2021/10/16 02:18:30;;;;;;;;;;;;;;;4.73;96.46;102155.38;5074567;28;19970;-56
2021/10/16 02:20:57;;;;;;;;;;;;;;;4.68;96.96;102159.84;5073583;28;19981;-56
2021/10/16 02:23:23;;;;;;;;;;;;;;;4.71;96.94;102162.38;5071171;28;20395;-56
2021/10/16 02:25:50;;;;;;;;;;;;;;;4.80;96.21;102164.81;5073803;28;19924;-55
2021/10/16 02:28:17;;;;;;;;;;;;;;;4.79;96.49;102165.69;5074509;28;20383;-57
2021/10/16 02:30:43;;;;;;;;;;;;;;;4.71;96.88;102167.59;5074295;28;19950;-56
2021/10/16 02:33:10;;;;;;;;;;;;;;;4.64;97.59;102161.63;5072430;28;19924;-54
2021/10/16 02:35:37;;;;;;;;;;;;;;;4.65;97.23;102167.69;5073415;28;19924;-56
2021/10/16 02:38:03;;;;;;;;;;;;;;;4.56;97.10;102166.97;5074940;28;20422;-56
2021/10/16 02:40:31;;;;;;;;;;;;;;;4.68;96.82;102175.47;5071454;28;20015;-56
2021/10/16 02:42:59;;;;;;;;;;;;;;;4.59;97.61;102173.03;5069730;28;19931;-56
2021/10/16 02:45:26;;;;;;;;;;;;;;;4.69;97.16;102174.56;5074067;28;19932;-56
2021/10/16 02:47:53;;;;;;;;;;;;;;;4.67;97.28;102172.00;5074926;28;19924;-57
2021/10/16 02:50:19;;;;;;;;;;;;;;;4.73;97.87;102177.09;5073323;28;19947;-57
2021/10/16 02:52:46;;;;;;;;;;;;;;;4.53;99.35;102172.25;5106615;28;20493;-57
2021/10/16 02:55:13;;;;;;;;;;;;;;;4.50;99.63;102174.94;5074331;28;19925;-57
2021/10/16 02:57:39;;;;;;;;;;;;;;;4.51;99.34;102170.56;5072959;28;19931;-51
2021/10/16 03:00:06;;;;;;;;;;;;;;;4.74;98.38;102172.75;5074524;28;19970;-50
2021/10/16 03:02:34;;;;;;;;;;;;;;;4.64;97.91;102171.22;5073366;28;19924;-51
2021/10/16 03:05:01;;;;;;;;;;;;;;;4.57;97.85;102181.75;5074511;28;20379;-46
2021/10/16 03:07:29;;;;;;;;;;;;;;;4.55;99.05;102162.69;5073973;28;19928;-50
2021/10/16 03:09:55;;;;;;;;;;;;;;;4.69;98.49;102171.97;5103959;28;20418;-51
2021/10/16 03:12:22;;;;;;;;;;;;;;;4.76;98.55;102183.13;5070819;28;19932;-48
2021/10/16 03:14:49;;;;;;;;;;;;;;;4.69;98.46;102183.25;5073913;28;19925;-46
2021/10/16 03:17:16;;;;;;;;;;;;;;;4.77;99.72;102177.88;5071811;28;19931;-58
2021/10/16 03:19:42;;;;;;;;;;;;;;;4.66;100.00;102174.63;5103858;28;19958;-58
2021/10/16 03:22:09;;;;;;;;;;;;;;;4.56;100.00;102172.19;5105341;28;19928;-58
2021/10/16 03:24:36;;;;;;;;;;;;;;;4.57;100.00;102167.88;5072374;28;19978;-57
2021/10/16 03:27:03;;;;;;;;;;;;;;;4.59;100.00;102167.84;5073123;28;19935;-57
2021/10/16 03:29:29;;;;;;;;;;;;;;;4.59;100.00;102167.84;5068604;28;20311;-47
2021/10/16 03:31:56;;;;;;;;;;;;;;;4.59;100.00;102173.03;5072499;28;19936;-57
2021/10/16 03:34:23;;;;;;;;;;;;;;;4.67;100.00;102171.16;5073543;28;19928;-57
2021/10/16 03:36:49;;;;;;;;;;;;;;;4.64;100.00;102163.41;5089342;28;20410;-48
2021/10/16 03:39:16;;;;;;;;;;;;;;;4.73;100.00;102166.69;5073375;28;19925;-44
2021/10/16 03:41:43;;;;;;;;;;;;;;;4.77;100.00;102162.25;5071095;28;19928;-50
2021/10/16 03:44:09;;;;;;;;;;;;;;;4.86;100.00;102164.69;5073564;28;19925;-58
2021/10/16 03:46:36;;;;;;;;;;;;;;;4.81;100.00;102169.13;5072524;28;19931;-58
2021/10/16 03:49:03;;;;;;;;;;;;;;;4.82;100.00;102170.00;5071335;28;19974;-58
2021/10/16 03:51:30;;;;;;;;;;;;;;;4.86;100.00;102169.88;5087719;28;19924;-57
2021/10/16 03:53:57;;;;;;;;;;;;;;;4.90;100.00;102168.09;5070699;28;19935;-56
2021/10/16 03:56:24;;;;;;;;;;;;;;;4.85;100.00;102165.59;5069275;28;19925;-58
2021/10/16 03:58:50;;;;;;;;;;;;;;;4.85;100.00;102175.13;5104539;28;19997;-58
2021/10/16 04:01:17;;;;;;;;;;;;;;;4.87;100.00;102165.56;5068736;28;19928;-59
2021/10/16 04:03:44;;;;;;;;;;;;;;;4.97;100.00;102166.22;5071959;28;19924;-58
2021/10/16 04:06:11;;;;;;;;;;;;;;;5.01;100.00;102157.44;5071581;28;20395;-47
2021/10/16 04:08:37;;;;;;;;;;;;;;;5.00;100.00;102168.75;5070458;28;19925;-58
2021/10/16 04:11:04;;;;;;;;;;;;;;;5.09;100.00;102160.75;5072102;28;19925;-46
2021/10/16 04:13:30;;;;;;;;;;;;;;;5.08;100.00;102166.84;5072870;28;19931;-47
2021/10/16 04:15:57;;;;;;;;;;;;;;;5.12;100.00;102158.06;5073229;28;19928;-57
2021/10/16 04:18:24;;;;;;;;;;;;;;;5.12;100.00;102160.66;5088397;28;19931;-58
2021/10/16 04:20:51;;;;;;;;;;;;;;;5.22;100.00;102167.44;5072874;28;19924;-58
2021/10/16 04:23:17;;;;;;;;;;;;;;;5.20;100.00;102158.75;5072865;28;19959;-58
2021/10/16 04:25:44;;;;;;;;;;;;;;;5.22;100.00;102159.59;5073213;28;20011;-59
2021/10/16 04:28:11;;;;;;;;;;;;;;;5.26;100.00;102162.97;5073144;28;20299;-59
2021/10/16 04:30:38;;;;;;;;;;;;;;;5.29;100.00;102159.44;5072849;28;19924;-58
2021/10/16 04:33:04;;;;;;;;;;;;;;;5.31;100.00;102165.50;5069897;28;19960;-58
2021/10/16 04:35:31;;;;;;;;;;;;;;;5.38;100.00;102169.69;5068034;28;19928;-57
2021/10/16 04:37:58;;;;;;;;;;;;;;;5.45;100.00;102170.41;5071672;28;19959;-46
2021/10/16 04:40:26;;;;;;;;;;;;;;;5.50;100.00;102168.56;5071216;28;20413;-48
2021/10/16 04:42:53;;;;;;;;;;;;;;;5.57;100.00;102163.16;5072481;28;19963;-48
2021/10/16 04:45:20;;;;;;;;;;;;;;;5.64;100.00;102168.25;5072679;28;20403;-44
2021/10/16 04:47:47;;;;;;;;;;;;;;;5.63;100.00;102167.38;5105155;28;19947;-47
2021/10/16 04:50:14;;;;;;;;;;;;;;;5.65;100.00;102169.97;5072099;28;19928;-47
2021/10/16 04:52:40;;;;;;;;;;;;;;;5.73;100.00;102168.03;5104968;28;19931;-57
2021/10/16 04:55:07;;;;;;;;;;;;;;;5.80;100.00;102153.94;5074895;28;19967;-46
2021/10/16 04:57:34;;;;;;;;;;;;;;;5.73;100.00;102152.38;5076771;28;20435;-48
2021/10/16 05:00:00;;;;;;;;;;;;;;;5.70;100.00;102166.34;5092360;28;19966;-48
2021/10/16 05:02:27;;;;;;;;;;;;;;;5.69;100.00;102163.78;5076554;28;19963;-49
2021/10/16 05:04:54;;;;;;;;;;;;;;;5.74;100.00;102160.16;5075280;28;20326;-49
2021/10/16 05:07:21;;;;;;;;;;;;;;;5.87;100.00;102158.09;5075515;28;20406;-50
2021/10/16 05:09:49;;;;;;;;;;;;;;;5.86;100.00;102150.31;5107667;28;19924;-47
2021/10/16 05:12:16;;;;;;;;;;;;;;;5.91;100.00;102162.34;5073400;28;19960;-49
2021/10/16 05:14:43;;;;;;;;;;;;;;;5.96;100.00;102158.75;5056835;28;19935;-50
2021/10/16 05:17:10;;;;;;;;;;;;;;;6.00;100.00;102160.44;5076498;28;19932;-50
2021/10/16 05:19:37;;;;;;;;;;;;;;;6.14;100.00;102158.34;5075095;28;20372;-57
2021/10/16 05:22:03;;;;;;;;;;;;;;;6.01;100.00;102165.66;5076296;28;19925;-58
2021/10/16 05:24:30;;;;;;;;;;;;;;;5.98;100.00;102167.47;5076146;28;19978;-58
2021/10/16 05:26:57;;;;;;;;;;;;;;;6.03;100.00;102157.78;5074875;28;19931;-51
2021/10/16 05:29:23;;;;;;;;;;;;;;;6.04;100.00;102165.56;5076088;28;20357;-49
2021/10/16 05:31:50;;;;;;;;;;;;;;;6.07;100.00;102165.47;5108593;28;19952;-58
2021/10/16 05:34:16;;;;;;;;;;;;;;;6.17;100.00;102160.03;5075811;28;20023;-58
2021/10/16 05:36:43;;;;;;;;;;;;;;;6.09;100.00;102171.53;5108435;28;19974;-58
2021/10/16 05:39:10;;;;;;;;;;;;;;;6.11;100.00;102178.44;5076001;28;19925;-50
2021/10/16 05:41:36;;;;;;;;;;;;;;;6.13;100.00;102167.06;5073688;28;20391;-57
2021/10/16 05:44:03;;;;;;;;;;;;;;;6.18;100.00;102166.97;5072600;28;20395;-57
2021/10/16 05:46:33;;;;;;;;;;;;;;;6.25;100.00;102165.91;5073001;28;19928;-46
2021/10/16 05:49:00;;;;;;;;;;;;;;;6.25;100.00;102171.97;5075633;28;19925;-57
2021/10/16 05:51:27;;;;;;;;;;;;;;;6.28;100.00;102167.59;5107933;28;19932;-59
2021/10/16 05:53:54;;;;;;;;;;;;;;;6.28;100.00;102171.03;5074072;28;19952;-57
2021/10/16 05:56:21;;;;;;;;;;;;;;;6.29;100.00;102174.53;5072766;28;19970;-56
2021/10/16 05:58:47;;;;;;;;;;;;;;;6.28;100.00;102170.19;5072314;28;19924;-57
2021/10/16 06:01:14;;;;;;;;;;;;;;;6.31;100.00;102160.50;5075557;28;19935;-50
2021/10/16 06:03:40;;;;;;;;;;;;;;;6.37;100.00;102169.97;5074809;28;20291;-51
2021/10/16 06:06:07;;;;;;;;;;;;;;;6.41;100.00;102162.00;5075640;28;19974;-45
2021/10/16 06:08:34;;;;;;;;;;;;;;;6.41;100.00;102174.22;5073747;28;19925;-49
2021/10/16 06:11:01;;;;;;;;;;;;;;;6.39;100.00;102171.66;5104767;28;19974;-49
2021/10/16 06:13:27;;;;;;;;;;;;;;;6.44;100.00;102168.91;5089725;28;20375;-47
2021/10/16 06:15:54;;;;;;;;;;;;;;;6.46;100.00;102168.84;5074723;28;19935;-47
2021/10/16 06:18:24;;;;;;;;;;;;;;;6.48;100.00;102162.69;5071619;28;19928;-47
2021/10/16 06:20:50;;;;;;;;;;;;;;;6.50;100.00;102173.09;5073585;28;19924;-47
2021/10/16 06:23:17;;;;;;;;;;;;;;;6.51;100.00;102173.06;5074892;28;19978;-46
2021/10/16 06:25:44;;;;;;;;;;;;;;;6.55;100.00;102166.00;5072866;28;19928;-58
2021/10/16 06:28:14;;;;;;;;;;;;;;;6.59;100.00;102168.47;5071815;28;19925;-59
2021/10/16 06:30:41;;;;;;;;;;;;;;;6.59;100.00;102178.09;5090391;28;20295;-57
2021/10/16 06:33:08;;;;;;;;;;;;;;;6.62;100.00;102179.75;5075420;28;20376;-59
2021/10/16 06:35:38;;;;;;;;;;;;;;;6.66;100.00;102179.63;5106206;28;19995;-46
2021/10/16 06:38:04;;;;;;;;;;;;;;;6.62;100.00;102179.75;5104477;28;19959;-45
2021/10/16 06:40:31;;;;;;;;;;;;;;;6.65;100.00;102182.28;5056384;28;19966;-48
2021/10/16 06:42:58;;;;;;;;;;;;;;;6.70;100.00;102180.41;5074520;28;19932;-49
2021/10/16 06:45:25;;;;;;;;;;;;;;;6.83;100.00;102184.41;5069311;28;20557;-46
2021/10/16 06:47:51;;;;;;;;;;;;;;;6.81;100.00;102177.50;5071840;28;19925;-57
2021/10/16 06:50:18;;;;;;;;;;;;;;;6.77;100.00;102176.72;5074106;28;20314;-56
2021/10/16 06:52:44;;;;;;;;;;;;;;;6.80;100.00;102184.47;5071202;28;19928;-58
2021/10/16 06:55:11;;;;;;;;;;;;;;;6.80;100.00;102181.84;5103658;28;20023;-57
2021/10/16 06:57:38;;;;;;;;;;;;;;;6.88;100.00;102185.09;5074224;28;19929;-57
2021/10/16 07:00:06;;;;;;;;;;;;;;;6.93;100.00;102187.59;5074474;28;20349;-57
2021/10/16 07:02:32;;;;;;;;;;;;;;;6.94;100.00;102190.19;5074287;28;19990;-57
2021/10/16 07:04:59;;;;;;;;;;;;;;;6.95;100.00;102193.63;5072802;28;20437;-50
2021/10/16 07:07:26;;;;;;;;;;;;;;;6.99;100.00;102194.41;5103745;28;19931;-47
2021/10/16 07:09:52;;;;;;;;;;;;;;;7.00;100.00;102194.38;5073545;28;20015;-51
2021/10/16 07:12:19;;;;;;;;;;;;;;;7.03;100.00;102199.50;5073917;28;19928;-52
2021/10/16 07:14:46;;;;;;;;;;;;;;;7.09;100.00;102206.34;5073462;28;19993;-50
2021/10/16 07:17:12;;;;;;;;;;;;;;;7.13;100.00;102199.25;5073942;28;19931;-44
2021/10/16 07:19:40;;;;;;;;;;;;;;;7.18;100.00;102197.38;5073976;28;19924;-45
2021/10/16 07:22:06;;;;;;;;;;;;;;;7.19;100.00;102206.94;5071772;28;20751;-47
2021/10/16 07:24:33;;;;;;;;;;;;;;;7.20;100.00;102198.16;5070269;28;19928;-49
2021/10/16 07:26:59;;;;;;;;;;;;;;;7.26;100.00;102204.06;5073803;28;19970;-47
2021/10/16 07:29:26;;;;;;;;;;;;;;;7.28;100.00;102210.13;5073810;28;20276;-45
2021/10/16 07:31:53;;;;;;;;;;;;;;;7.33;100.00;102207.38;5071122;28;19936;-47
2021/10/16 07:34:20;;;;;;;;;;;;;;;7.38;100.00;102209.88;5070726;28;19963;-45
2021/10/16 07:36:47;;;;;;;;;;;;;;;7.45;100.00;102214.00;5073162;28;19924;-47
2021/10/16 07:39:14;;;;;;;;;;;;;;;7.49;100.00;102215.63;5105882;28;20446;-48
2021/10/16 07:41:42;;;;;;;;;;;;;;;7.51;100.00;102212.97;5073308;28;19925;-45
2021/10/16 07:44:09;;;;;;;;;;;;;;;7.57;100.00;102211.00;5073704;28;19928;-50
2021/10/16 07:46:36;;;;;;;;;;;;;;;7.59;100.00;102211.84;5073766;28;19924;-58
2021/10/16 07:49:03;;;;;;;;;;;;;;;7.63;100.00;102209.97;5105821;28;19931;-57
2021/10/16 07:51:29;;;;;;;;;;;;;;;7.70;100.00;102210.63;5073307;28;19932;-58
2021/10/16 07:53:56;;;;;;;;;;;;;;;7.73;100.00;102207.91;5086369;28;19925;-58
2021/10/16 07:56:23;;;;;;;;;;;;;;;7.75;100.00;102201.72;5069563;28;19954;-58
2021/10/16 07:58:49;;;;;;;;;;;;;;;7.82;100.00;102210.25;5105585;28;20482;-59
2021/10/16 08:01:16;;;;;;;;;;;;;;;7.91;100.00;102211.72;5072252;28;19924;-58
2021/10/16 08:03:43;;;;;;;;;;;;;;;7.92;100.00;102211.69;5073349;28;19936;-58
2021/10/16 08:06:09;;;;;;;;;;;;;;;7.95;100.00;102215.97;5072980;28;19925;-51
2021/10/16 08:08:36;;;;;;;;;;;;;;;8.01;100.00;102210.50;5070303;28;20349;-47
2021/10/16 08:11:03;;;;;;;;;;;;;;;8.05;100.00;102216.50;5069863;28;19993;-50
2021/10/16 08:13:30;;;;;;;;;;;;;;;8.09;100.00;102218.97;5073156;28;19924;-51
2021/10/16 08:15:57;;;;;;;;;;;;;;;8.16;100.00;102219.63;5073009;28;19993;-50
2021/10/16 08:18:24;;;;;;;;;;;;;;;8.20;100.00;102210.75;5105257;28;19947;-46
2021/10/16 08:20:51;;;;;;;;;;;;;;;8.24;100.00;102209.75;5072836;28;19924;-50
2021/10/16 08:23:18;;;;;;;;;;;;;;;8.30;100.00;102211.31;5072358;28;19929;-50
2021/10/16 08:25:45;;;;;;;;;;;;;;;8.35;100.00;102224.28;5104700;28;19963;-47
2021/10/16 08:28:14;;;;;;;;;;;;;;;8.38;100.00;102234.63;5072587;28;20368;-47
2021/10/16 08:30:44;;;;;;;;;;;;;;;8.41;100.00;102227.53;5072878;28;20366;-49
2021/10/16 08:33:11;;;;;;;;;;;;;;;8.46;100.00;102222.16;5068758;28;19931;-51
2021/10/16 08:35:37;;;;;;;;;;;;;;;8.52;100.00;102227.22;5070290;28;20020;-46
2021/10/16 08:38:04;;;;;;;;;;;;;;;8.61;100.00;102231.25;5072834;28;19952;-57
2021/10/16 08:40:31;;;;;;;;;;;;;;;8.65;100.00;102235.50;5070900;28;20721;-57
2021/10/16 08:42:57;;;;;;;;;;;;;;;8.71;99.45;102235.28;5068674;28;20410;-57
2021/10/16 08:45:24;;;;;;;;;;;;;;;8.80;99.47;102227.06;5071942;28;20303;-58
2021/10/16 08:47:51;;;;;;;;;;;;;;;8.86;99.55;102220.78;5071323;28;19925;-57
2021/10/16 08:50:18;;;;;;;;;;;;;;;8.94;99.45;102231.84;5102252;28;19955;-57
2021/10/16 08:52:44;;;;;;;;;;;;;;;9.01;99.32;102232.44;5086469;28;20375;-57
2021/10/16 08:55:13;;;;;;;;;;;;;;;9.08;98.77;102235.72;5072532;28;19971;-57
2021/10/16 08:57:41;;;;;;;;;;;;;;;9.14;98.17;102233.72;5087750;28;19971;-57
2021/10/16 09:00:26;;;;;;;;;;;;;;;9.22;97.39;102236.06;5069377;28;19929;-57
2021/10/16 09:02:53;;;;;;;;;;;;;;;9.33;97.00;102237.47;5070328;28;20302;-57
2021/10/16 09:05:20;;;;;;;;;;;;;;;9.34;95.56;102245.28;5086671;28;19924;-57
2021/10/16 09:07:46;;;;;;;;;;;;;;;9.41;96.57;102238.03;5069835;28;19924;-56
2021/10/16 09:10:22;;;;;;;;;;;;;;;9.47;96.01;102232.50;5071603;28;20374;-58
2021/10/16 09:12:54;;;;;;;;;;;;;;;9.52;95.78;102237.59;5073159;28;19932;-59
2021/10/16 09:15:22;;;;;;;;;;;;;;;9.61;95.75;102237.22;5092900;28;19930;-57
2021/10/16 09:18:05;;;;;;;;;;;;;;;9.60;93.24;102252.16;5094448;28;19928;-57
2021/10/16 09:23:24;;;;;;;;;;;;;;;9.72;94.99;102244.69;4875756;29;19931;-52
2021/10/16 09:25:57;;;;;;;;;;;;;;;9.82;94.17;102238.16;4878332;29;20336;-45
2021/10/16 09:28:24;;;;;;;;;;;;;;;9.92;94.92;102246.53;4880453;29;20026;-47
2021/10/16 09:30:50;;;;;;;;;;;;;;;9.97;94.21;102245.44;4897273;29;20061;-50
2021/10/16 09:33:19;;;;;;;;;;;;;;;10.05;92.91;102236.38;4897312;29;19927;-51
2021/10/16 09:35:46;;;;;;;;;;;;;;;10.12;92.04;102241.31;4895051;29;19994;-51
2021/10/16 09:38:13;;;;;;;;;;;;;;;10.15;91.44;102245.59;4878238;29;19960;-51
2021/10/16 09:40:40;;;;;;;;;;;;;;;10.21;90.78;102241.88;4899603;29;20383;-51
2021/10/16 09:43:20;;;;;;;;;;;;;;;10.25;91.29;102244.31;4897110;29;20111;-48
2021/10/16 09:45:47;;;;;;;;;;;;;;;10.37;90.94;102248.22;4899623;29;19991;-50
2021/10/16 09:48:34;;;;;;;;;;;;;;;10.39;88.29;102237.63;4900555;29;19927;-51
2021/10/16 09:51:01;;;;;;;;;;;;;;;10.45;87.42;102240.03;4900636;29;20395;-57
2021/10/16 09:53:28;;;;;;;;;;;;;;;10.49;88.59;102233.72;4900385;29;20383;-57
2021/10/16 09:55:54;;;;;;;;;;;;;;;10.58;88.39;102233.31;4900332;29;20403;-57
2021/10/16 09:58:25;;;;;;;;;;;;;;;10.66;88.77;102238.22;4900409;29;19934;-56
2021/10/16 10:00:52;;;;;;;;;;;;;;;10.68;86.48;102241.66;4898703;29;19927;-57
2021/10/16 10:03:20;;;;;;;;;;;;;;;10.75;87.60;102239.63;4896753;29;19928;-57
2021/10/16 10:05:46;;;;;;;;;;;;;;;10.80;87.54;102243.75;4881889;29;19936;-57
2021/10/16 10:08:13;;;;;;;;;;;;;;;10.83;86.59;102238.34;4899741;29;20376;-57
2021/10/16 10:10:40;;;;;;;;;;;;;;;10.97;84.99;102235.09;4883295;29;20351;-56
2021/10/16 10:13:06;;;;;;;;;;;;;;;10.97;84.50;102236.88;4883180;29;20399;-57
2021/10/16 10:15:33;;;;;;;;;;;;;;;10.96;84.93;102238.69;4883358;29;19928;-57
2021/10/16 10:17:59;;;;;;;;;;;;;;;11.00;83.49;102239.38;4899492;29;19927;-57
2021/10/16 10:20:26;;;;;;;;;;;;;;;11.07;84.49;102238.19;4897248;29;19931;-58
2021/10/16 10:22:53;;;;;;;;;;;;;;;11.13;84.46;102239.69;4881923;29;20376;-56
2021/10/16 10:25:19;;;;;;;;;;;;;;;11.23;84.12;102243.59;4899489;29;19927;-57
2021/10/16 10:27:46;;;;;;;;;;;;;;;11.31;83.60;102241.47;4899251;29;19931;-54
2021/10/16 10:30:32;;;;;;;;;;;;;;;11.38;81.58;102241.19;4867697;29;20284;-56
2021/10/16 10:33:18;;;;;;;;;;;;;;;11.42;81.09;102250.66;4899725;29;19927;-56
2021/10/16 10:35:57;;;;;;;;;;;;;;;11.52;80.81;102235.28;4899903;29;19950;-57
2021/10/16 10:38:28;;;;;;;;;;;;;;;11.53;80.31;102237.84;4896326;29;19931;-57
2021/10/16 10:40:55;;;;;;;;;;;;;;;11.62;80.29;102247.13;4895827;29;19983;-55
2021/10/16 10:43:37;;;;;;;;;;;;;;;11.67;79.43;102243.31;4899541;29;20417;-51
2021/10/16 10:46:13;;;;;;;;;;;;;;;11.70;80.46;102244.09;4899505;29;19979;-49
2021/10/16 10:48:43;;;;;;;;;;;;;;;11.76;79.01;102233.28;4899330;29;20414;-51
2021/10/16 10:51:10;;;;;;;;;;;;;;;11.79;76.04;102233.13;4896547;29;19927;-48
2021/10/16 10:53:37;;;;;;;;;;;;;;;11.81;75.96;102228.63;4896562;29;19935;-50
2021/10/16 10:56:20;;;;;;;;;;;;;;;11.87;75.11;102224.84;4899333;29;19992;-50
2021/10/16 10:58:55;;;;;;;;;;;;;;;11.86;75.64;102223.97;4883593;29;19932;-50
2021/10/16 11:01:40;;;;;;;;;;;;;;;11.99;75.84;102225.13;4899183;29;19927;-49
2021/10/16 11:04:06;;;;;;;;;;;;;;;12.09;75.73;102222.03;4899256;29;19945;-58
2021/10/16 11:06:33;;;;;;;;;;;;;;;12.23;76.92;102226.59;4882539;29;19975;-57
2021/10/16 11:09:16;;;;;;;;;;;;;;;12.36;75.58;102216.31;4882940;29;19994;-47
2021/10/16 11:11:49;;;;;;;;;;;;;;;12.29;74.10;102210.50;4866935;29;20458;-50
2021/10/16 11:14:16;;;;;;;;;;;;;;;12.32;72.69;102207.69;4898439;29;20417;-58
2021/10/16 11:16:59;;;;;;;;;;;;;;;12.31;72.65;102204.22;4895183;29;20363;-57
2021/10/16 11:19:26;;;;;;;;;;;;;;;12.38;72.74;102201.25;4897541;29;20347;-57
2021/10/16 11:21:54;;;;;;;;;;;;;;;12.28;72.71;102199.06;4878942;29;20368;-58
2021/10/16 11:24:21;;;;;;;;;;;;;;;12.46;72.81;102199.94;4880332;29;20304;-57
2021/10/16 11:26:54;;;;;;;;;;;;;;;12.62;72.71;102209.69;4878751;29;19931;-58
2021/10/16 11:29:27;;;;;;;;;;;;;;;12.71;71.27;102197.78;4880141;29;19983;-58
2021/10/16 11:32:13;;;;;;;;;;;;;;;13.09;69.95;102200.16;4880234;29;20026;-58
2021/10/16 11:34:39;;;;;;;;;;;;;;;13.04;70.04;102196.94;4879621;29;20410;-58
2021/10/16 11:37:06;;;;;;;;;;;;;;;13.18;68.83;102199.66;4879236;29;20550;-57
2021/10/16 11:39:35;;;;;;;;;;;;;;;13.33;68.85;102193.56;4878457;29;19932;-57
2021/10/16 11:42:02;;;;;;;;;;;;;;;13.35;69.27;102191.69;4879757;29;20022;-56
2021/10/16 11:44:29;;;;;;;;;;;;;;;13.49;68.92;102187.44;4877152;29;19932;-58
2021/10/16 11:47:06;;;;;;;;;;;;;;;13.43;67.95;102187.75;4876118;29;19928;-57
2021/10/16 11:49:33;;;;;;;;;;;;;;;13.63;66.87;102179.59;4878067;29;19936;-57
2021/10/16 11:51:59;;;;;;;;;;;;;;;14.09;65.54;102176.06;4879944;29;19932;-56
2021/10/16 11:54:26;;;;;;;;;;;;;;;14.06;64.00;102173.59;4878409;29;19928;-55
2021/10/16 11:56:56;;;;;;;;;;;;;;;14.01;62.79;102173.84;4879857;29;19934;-56
2021/10/16 11:59:23;;;;;;;;;;;;;;;14.18;62.47;102170.22;4879543;29;19935;-57
2021/10/16 12:01:50;;;;;;;;;;;;;;;14.53;61.66;102171.69;4878785;29;19928;-55
2021/10/16 12:04:17;;;;;;;;;;;;;;;14.42;61.62;102169.69;4879402;29;20615;-55
2021/10/16 12:06:44;;;;;;;;;;;;;;;14.75;63.60;102167.75;4878197;29;20295;-56
2021/10/16 12:09:12;;;;;;;;;;;;;;;15.26;60.67;102170.72;4859836;29;20388;-58
2021/10/16 12:11:39;;;;;;;;;;;;;;;15.33;60.07;102161.41;4876977;29;19928;-49
2021/10/16 12:14:07;;;;;;;;;;;;;;;15.56;62.25;102159.09;4879244;29;19984;-48
2021/10/16 12:16:37;;;;;;;;;;;;;;;15.78;58.60;102160.31;4879222;29;20404;-57
2021/10/16 12:19:09;;;;;;;;;;;;;;;15.62;57.85;102155.16;4878051;29;19928;-57
2021/10/16 12:21:37;;;;;;;;;;;;;;;15.93;58.86;102159.31;4883793;29;19931;-52
2021/10/16 12:24:30;;;;;;;;;;;;;;;16.07;57.03;102150.41;4897756;29;19949;-56
2021/10/16 12:27:04;;;;;;;;;;;;;;;15.86;56.12;102160.69;4895956;29;19995;-51
2021/10/16 12:29:31;;;;;;;;;;;;;;;15.81;56.17;102152.19;4897974;29;20343;-50
2021/10/16 12:31:58;;;;;;;;;;;;;;;15.84;57.10;102152.84;4898103;29;20344;-57
2021/10/16 12:34:28;;;;;;;;;;;;;;;15.75;53.90;102155.19;4897974;29;20363;-51
2021/10/16 12:36:55;;;;;;;;;;;;;;;15.67;55.25;102151.25;4897700;29;20303;-48
2021/10/16 12:39:23;;;;;;;;;;;;;;;15.90;54.22;102151.56;4897533;29;19975;-51
2021/10/16 12:42:15;;;;;;;;;;;;;;;15.96;55.78;102156.44;4897817;29;20379;-48
2021/10/16 12:44:46;;;;;;;;;;;;;;;15.97;54.76;102136.09;4881089;29;20299;-48
2021/10/16 12:47:19;;;;;;;;;;;;;;;15.99;56.11;102137.69;4881120;29;19928;-48